sensor_id;sensor_type;location;lat;lon;timestamp;temperature;humidity
71297;SHT31;59082;50.658;4.608;2022-12-29T00:01:27;10.70;99.99
71297;SHT31;59082;50.658;4.608;2022-12-29T00:03:52;10.61;99.99
71297;SHT31;59082;50.658;4.608;2022-12-29T00:06:19;10.63;99.99
71297;SHT31;59082;50.658;4.608;2022-12-29T00:08:44;10.58;99.99
71297;SHT31;59082;50.658;4.608;2022-12-29T00:11:21;10.55;99.99
71297;SHT31;59082;50.658;4.608;2022-12-29T00:13:47;10.56;99.99
71297;SHT31;59082;50.658;4.608;2022-12-29T00:16:33;10.58;99.99
71297;SHT31;59082;50.658;4.608;2022-12-29T07:46:03;8.98;99.99
71297;SHT31;59082;50.658;4.608;2022-12-29T07:48:29;8.97;99.99
71297;SHT31;59082;50.658;4.608;2022-12-29T07:50:54;9.12;99.99
71297;SHT31;59082;50.658;4.608;2022-12-29T07:53:20;9.12;99.99
71297;SHT31;59082;50.658;4.608;2022-12-29T07:55:46;9.15;99.99
71297;SHT31;59082;50.658;4.608;2022-12-29T07:58:11;9.05;99.99
71297;SHT31;59082;50.658;4.608;2022-12-29T08:00:38;9.12;99.99
71297;SHT31;59082;50.658;4.608;2022-12-29T08:03:04;8.94;99.99
71297;SHT31;59082;50.658;4.608;2022-12-29T08:05:31;8.84;99.99
71297;SHT31;59082;50.658;4.608;2022-12-29T08:07:56;8.96;99.99
71297;SHT31;59082;50.658;4.608;2022-12-29T08:10:22;9.10;99.99
71297;SHT31;59082;50.658;4.608;2022-12-29T08:12:48;9.14;99.99
71297;SHT31;59082;50.658;4.608;2022-12-29T08:15:14;9.10;99.99
71297;SHT31;59082;50.658;4.608;2022-12-29T08:17:39;9.21;99.99
71297;SHT31;59082;50.658;4.608;2022-12-29T08:20:05;9.29;99.99
71297;SHT31;59082;50.658;4.608;2022-12-29T08:22:31;9.31;99.99
71297;SHT31;59082;50.658;4.608;2022-12-29T08:24:57;9.25;99.99
71297;SHT31;59082;50.658;4.608;2022-12-29T08:27:23;9.19;99.99
71297;SHT31;59082;50.658;4.608;2022-12-29T08:29:49;9.18;99.99
71297;SHT31;59082;50.658;4.608;2022-12-29T08:32:15;9.05;99.99
71297;SHT31;59082;50.658;4.608;2022-12-29T08:34:42;9.01;99.99
71297;SHT31;59082;50.658;4.608;2022-12-29T08:37:07;8.91;99.99
71297;SHT31;59082;50.658;4.608;2022-12-29T08:39:33;8.97;99.99
71297;SHT31;59082;50.658;4.608;2022-12-29T08:41:59;8.84;99.99
71297;SHT31;59082;50.658;4.608;2022-12-29T08:44:25;8.83;99.99
71297;SHT31;59082;50.658;4.608;2022-12-29T08:46:50;8.70;99.99
71297;SHT31;59082;50.658;4.608;2022-12-29T08:49:16;8.67;99.99
71297;SHT31;59082;50.658;4.608;2022-12-29T08:51:41;8.62;99.99
71297;SHT31;59082;50.658;4.608;2022-12-29T08:54:07;8.60;99.99
71297;SHT31;59082;50.658;4.608;2022-12-29T08:56:32;8.70;99.99
71297;SHT31;59082;50.658;4.608;2022-12-29T08:58:58;8.81;99.99
71297;SHT31;59082;50.658;4.608;2022-12-29T09:01:24;8.74;99.99
71297;SHT31;59082;50.658;4.608;2022-12-29T09:03:49;8.81;99.99
71297;SHT31;59082;50.658;4.608;2022-12-29T09:06:17;8.80;99.99
71297;SHT31;59082;50.658;4.608;2022-12-29T09:08:44;8.79;99.99
71297;SHT31;59082;50.658;4.608;2022-12-29T09:11:18;8.88;99.99
71297;SHT31;59082;50.658;4.608;2022-12-29T09:13:45;8.76;99.99
71297;SHT31;59082;50.658;4.608;2022-12-29T09:16:11;8.80;99.99
71297;SHT31;59082;50.658;4.608;2022-12-29T09:18:38;8.70;99.99
71297;SHT31;59082;50.658;4.608;2022-12-29T09:21:05;8.77;99.99
71297;SHT31;59082;50.658;4.608;2022-12-29T09:23:32;8.76;99.99
71297;SHT31;59082;50.658;4.608;2022-12-29T09:25:58;8.84;99.99
71297;SHT31;59082;50.658;4.608;2022-12-29T09:28:24;8.90;99.99
71297;SHT31;59082;50.658;4.608;2022-12-29T09:30:51;8.88;99.99
71297;SHT31;59082;50.658;4.608;2022-12-29T09:33:19;8.91;99.99
71297;SHT31;59082;50.658;4.608;2022-12-29T09:35:51;8.91;99.99
71297;SHT31;59082;50.658;4.608;2022-12-29T09:38:16;8.87;99.99
71297;SHT31;59082;50.658;4.608;2022-12-29T09:40:45;8.73;99.99
71297;SHT31;59082;50.658;4.608;2022-12-29T09:43:30;8.73;99.99
71297;SHT31;59082;50.658;4.608;2022-12-29T09:48:34;9.07;99.99
71297;SHT31;59082;50.658;4.608;2022-12-29T09:51:15;9.17;99.99
71297;SHT31;59082;50.658;4.608;2022-12-29T09:53:44;9.25;99.71
71297;SHT31;59082;50.658;4.608;2022-12-29T09:56:17;9.25;99.99
71297;SHT31;59082;50.658;4.608;2022-12-29T10:01:27;9.28;99.99
71297;SHT31;59082;50.658;4.608;2022-12-29T10:03:56;9.31;99.99
71297;SHT31;59082;50.658;4.608;2022-12-29T10:06:26;9.39;99.79
71297;SHT31;59082;50.658;4.608;2022-12-29T10:09:12;9.69;98.95
71297;SHT31;59082;50.658;4.608;2022-12-29T10:22:43;10.30;97.17
71297;SHT31;59082;50.658;4.608;2022-12-29T10:25:17;10.58;97.52
71297;SHT31;59082;50.658;4.608;2022-12-29T10:27:47;10.81;96.20
71297;SHT31;59082;50.658;4.608;2022-12-29T10:30:13;10.80;96.32
71297;SHT31;59082;50.658;4.608;2022-12-29T10:32:45;10.40;97.09
71297;SHT31;59082;50.658;4.608;2022-12-29T10:35:19;10.37;97.30
71297;SHT31;59082;50.658;4.608;2022-12-29T10:37:49;10.40;96.09
71297;SHT31;59082;50.658;4.608;2022-12-29T10:43:28;10.95;95.13
71297;SHT31;59082;50.658;4.608;2022-12-29T10:45:59;11.08;95.12
71297;SHT31;59082;50.658;4.608;2022-12-29T10:48:34;11.13;95.03
71297;SHT31;59082;50.658;4.608;2022-12-29T10:51:02;10.95;94.88
71297;SHT31;59082;50.658;4.608;2022-12-29T10:53:45;10.97;95.96
71297;SHT31;59082;50.658;4.608;2022-12-29T11:05:03;11.08;95.44
71297;SHT31;59082;50.658;4.608;2022-12-29T11:07:32;10.97;95.84
71297;SHT31;59082;50.658;4.608;2022-12-29T11:13:16;10.83;95.62
71297;SHT31;59082;50.658;4.608;2022-12-29T11:15:49;10.63;95.76
71297;SHT31;59082;50.658;4.608;2022-12-29T11:18:19;10.59;96.67
71297;SHT31;59082;50.658;4.608;2022-12-29T11:20:45;10.56;96.04
71297;SHT31;59082;50.658;4.608;2022-12-29T11:23:36;10.52;96.56
71297;SHT31;59082;50.658;4.608;2022-12-29T11:28:30;10.37;96.23
71297;SHT31;59082;50.658;4.608;2022-12-29T11:31:01;10.34;97.00
71297;SHT31;59082;50.658;4.608;2022-12-29T11:33:32;10.28;97.19
71297;SHT31;59082;50.658;4.608;2022-12-29T11:36:17;10.35;95.56
71297;SHT31;59082;50.658;4.608;2022-12-29T11:38:54;10.31;96.08
71297;SHT31;59082;50.658;4.608;2022-12-29T11:41:30;10.37;96.03
71297;SHT31;59082;50.658;4.608;2022-12-29T11:44:02;10.61;96.24
71297;SHT31;59082;50.658;4.608;2022-12-29T11:46:32;10.81;94.87
71297;SHT31;59082;50.658;4.608;2022-12-29T11:48:59;11.04;94.52
71297;SHT31;59082;50.658;4.608;2022-12-29T11:51:33;11.03;93.77
71297;SHT31;59082;50.658;4.608;2022-12-29T11:54:02;11.18;93.67
71297;SHT31;59082;50.658;4.608;2022-12-29T11:56:33;11.68;93.46
71297;SHT31;59082;50.658;4.608;2022-12-29T12:01:51;11.58;92.99
71297;SHT31;59082;50.658;4.608;2022-12-29T12:04:21;11.37;92.90
71297;SHT31;59082;50.658;4.608;2022-12-29T12:12:00;11.17;93.33
71297;SHT31;59082;50.658;4.608;2022-12-29T12:14:48;11.23;93.29
71297;SHT31;59082;50.658;4.608;2022-12-29T12:17:29;11.03;93.05
71297;SHT31;59082;50.658;4.608;2022-12-29T12:20:26;11.04;93.63
71297;SHT31;59082;50.658;4.608;2022-12-29T12:25:54;10.84;94.79
71297;SHT31;59082;50.658;4.608;2022-12-29T12:28:56;10.86;94.78
71297;SHT31;59082;50.658;4.608;2022-12-29T12:31:47;10.73;94.81
71297;SHT31;59082;50.658;4.608;2022-12-29T12:34:20;10.72;95.09
71297;SHT31;59082;50.658;4.608;2022-12-29T12:37:15;10.63;94.72
71297;SHT31;59082;50.658;4.608;2022-12-29T12:39:56;10.51;95.18
71297;SHT31;59082;50.658;4.608;2022-12-29T12:42:57;10.42;95.77
71297;SHT31;59082;50.658;4.608;2022-12-29T12:51:30;10.27;95.60
71297;SHT31;59082;50.658;4.608;2022-12-29T12:56:47;10.41;95.25
71297;SHT31;59082;50.658;4.608;2022-12-29T12:59:30;10.37;94.97
71297;SHT31;59082;50.658;4.608;2022-12-29T13:05:33;10.22;95.53
71297;SHT31;59082;50.658;4.608;2022-12-29T13:10:30;10.25;97.14
71297;SHT31;59082;50.658;4.608;2022-12-29T13:18:33;10.07;97.54
71297;SHT31;59082;50.658;4.608;2022-12-29T13:21:15;10.05;98.00
71297;SHT31;59082;50.658;4.608;2022-12-29T13:26:48;10.10;97.65
71297;SHT31;59082;50.658;4.608;2022-12-29T13:29:34;10.05;97.85
71297;SHT31;59082;50.658;4.608;2022-12-29T13:37:31;10.73;94.93
71297;SHT31;59082;50.658;4.608;2022-12-29T13:40:02;11.24;94.35
71297;SHT31;59082;50.658;4.608;2022-12-29T13:42:29;11.08;93.98
71297;SHT31;59082;50.658;4.608;2022-12-29T13:44:59;10.97;93.07
71297;SHT31;59082;50.658;4.608;2022-12-29T13:50:17;10.76;93.45
71297;SHT31;59082;50.658;4.608;2022-12-29T13:55:25;10.72;94.11
71297;SHT31;59082;50.658;4.608;2022-12-29T13:58:13;10.42;95.06
71297;SHT31;59082;50.658;4.608;2022-12-29T14:00:54;10.25;95.29
71297;SHT31;59082;50.658;4.608;2022-12-29T14:06:21;10.34;95.18
71297;SHT31;59082;50.658;4.608;2022-12-29T14:08:53;10.10;96.18
71297;SHT31;59082;50.658;4.608;2022-12-29T14:11:22;10.04;95.64
71297;SHT31;59082;50.658;4.608;2022-12-29T14:13:51;9.91;95.39
71297;SHT31;59082;50.658;4.608;2022-12-29T14:16:31;9.94;95.72
71297;SHT31;59082;50.658;4.608;2022-12-29T14:19:21;9.98;95.35
71297;SHT31;59082;50.658;4.608;2022-12-29T14:22:05;10.07;95.45
71297;SHT31;59082;50.658;4.608;2022-12-29T14:24:43;10.10;95.54
71297;SHT31;59082;50.658;4.608;2022-12-29T14:33:14;9.95;96.68
71297;SHT31;59082;50.658;4.608;2022-12-29T14:35:45;9.86;96.98
71297;SHT31;59082;50.658;4.608;2022-12-29T14:38:17;9.82;96.84
71297;SHT31;59082;50.658;4.608;2022-12-29T14:40:44;9.70;97.47
71297;SHT31;59082;50.658;4.608;2022-12-29T14:43:22;9.57;97.92
71297;SHT31;59082;50.658;4.608;2022-12-29T14:46:01;9.34;99.99
71297;SHT31;59082;50.658;4.608;2022-12-29T14:48:34;9.15;99.99
71297;SHT31;59082;50.658;4.608;2022-12-29T14:51:18;8.81;99.99
71297;SHT31;59082;50.658;4.608;2022-12-29T14:53:50;8.62;99.99
71297;SHT31;59082;50.658;4.608;2022-12-29T14:56:19;8.53;99.99
71297;SHT31;59082;50.658;4.608;2022-12-29T14:59:00;8.38;99.99
71297;SHT31;59082;50.658;4.608;2022-12-29T15:01:50;8.42;99.99
71297;SHT31;59082;50.658;4.608;2022-12-29T15:04:25;8.38;99.99
71297;SHT31;59082;50.658;4.608;2022-12-29T15:06:51;8.42;99.99
71297;SHT31;59082;50.658;4.608;2022-12-29T15:09:32;8.35;99.99
71297;SHT31;59082;50.658;4.608;2022-12-29T15:12:35;8.12;99.99
71297;SHT31;59082;50.658;4.608;2022-12-29T15:15:02;7.98;99.99
71297;SHT31;59082;50.658;4.608;2022-12-29T15:17:30;7.91;99.99
71297;SHT31;59082;50.658;4.608;2022-12-29T15:19:58;7.87;99.99
71297;SHT31;59082;50.658;4.608;2022-12-29T15:22:24;7.90;99.99
71297;SHT31;59082;50.658;4.608;2022-12-29T15:24:52;7.90;99.99
71297;SHT31;59082;50.658;4.608;2022-12-29T15:27:23;7.95;99.99
71297;SHT31;59082;50.658;4.608;2022-12-29T15:29:58;8.05;99.99
71297;SHT31;59082;50.658;4.608;2022-12-29T15:32:27;8.05;99.99
71297;SHT31;59082;50.658;4.608;2022-12-29T15:34:58;7.95;99.99
71297;SHT31;59082;50.658;4.608;2022-12-29T15:37:33;7.77;99.99
71297;SHT31;59082;50.658;4.608;2022-12-29T15:40:00;6.90;99.99
71297;SHT31;59082;50.658;4.608;2022-12-29T15:42:52;6.76;99.99
71297;SHT31;59082;50.658;4.608;2022-12-29T15:45:20;6.66;99.99
71297;SHT31;59082;50.658;4.608;2022-12-29T15:47:46;6.58;99.99
71297;SHT31;59082;50.658;4.608;2022-12-29T15:52:43;6.51;99.99
71297;SHT31;59082;50.658;4.608;2022-12-29T15:55:19;6.53;99.99
71297;SHT31;59082;50.658;4.608;2022-12-29T15:57:48;6.50;99.99
71297;SHT31;59082;50.658;4.608;2022-12-29T16:00:22;6.42;99.99
71297;SHT31;59082;50.658;4.608;2022-12-29T16:02:48;6.32;99.99
71297;SHT31;59082;50.658;4.608;2022-12-29T16:05:18;6.23;99.99
71297;SHT31;59082;50.658;4.608;2022-12-29T16:08:24;6.11;99.99
71297;SHT31;59082;50.658;4.608;2022-12-29T16:10:52;6.05;99.99
71297;SHT31;59082;50.658;4.608;2022-12-29T16:13:33;6.08;99.99
71297;SHT31;59082;50.658;4.608;2022-12-29T16:16:18;6.15;99.99
71297;SHT31;59082;50.658;4.608;2022-12-29T16:18:44;6.09;99.99
71297;SHT31;59082;50.658;4.608;2022-12-29T16:21:39;6.06;99.99
71297;SHT31;59082;50.658;4.608;2022-12-29T16:24:11;6.02;99.99
71297;SHT31;59082;50.658;4.608;2022-12-29T16:26:39;6.01;99.99
71297;SHT31;59082;50.658;4.608;2022-12-29T16:29:12;5.99;99.99
71297;SHT31;59082;50.658;4.608;2022-12-29T16:34:33;6.05;99.99
71297;SHT31;59082;50.658;4.608;2022-12-29T16:37:32;6.12;99.99
71297;SHT31;59082;50.658;4.608;2022-12-29T16:40:37;6.16;99.99
71297;SHT31;59082;50.658;4.608;2022-12-29T16:43:04;6.25;99.99
71297;SHT31;59082;50.658;4.608;2022-12-29T16:48:21;6.47;99.99
71297;SHT31;59082;50.658;4.608;2022-12-29T16:50:49;6.56;99.99
71297;SHT31;59082;50.658;4.608;2022-12-29T16:53:26;6.61;99.99
71297;SHT31;59082;50.658;4.608;2022-12-29T16:55:54;6.56;99.99
71297;SHT31;59082;50.658;4.608;2022-12-29T16:58:23;6.56;99.99
71297;SHT31;59082;50.658;4.608;2022-12-29T17:00:52;6.53;99.99
71297;SHT31;59082;50.658;4.608;2022-12-29T17:03:20;6.40;99.99
71297;SHT31;59082;50.658;4.608;2022-12-29T17:05:47;6.32;99.99
71297;SHT31;59082;50.658;4.608;2022-12-29T17:08:22;6.19;99.99
71297;SHT31;59082;50.658;4.608;2022-12-29T17:10:55;5.99;99.99
71297;SHT31;59082;50.658;4.608;2022-12-29T17:13:40;5.87;99.99
71297;SHT31;59082;50.658;4.608;2022-12-29T17:16:06;5.75;99.99
71297;SHT31;59082;50.658;4.608;2022-12-29T17:18:33;5.71;99.99
71297;SHT31;59082;50.658;4.608;2022-12-29T17:20:59;5.67;99.99
71297;SHT31;59082;50.658;4.608;2022-12-29T17:23:25;5.60;99.99
71297;SHT31;59082;50.658;4.608;2022-12-29T17:25:52;5.48;99.99
71297;SHT31;59082;50.658;4.608;2022-12-29T17:28:27;5.46;99.99
71297;SHT31;59082;50.658;4.608;2022-12-29T17:30:58;5.43;99.99
71297;SHT31;59082;50.658;4.608;2022-12-29T17:33:25;5.39;99.99
71297;SHT31;59082;50.658;4.608;2022-12-29T17:35:50;5.37;99.99
71297;SHT31;59082;50.658;4.608;2022-12-29T17:38:38;5.36;99.99
71297;SHT31;59082;50.658;4.608;2022-12-29T17:41:04;5.30;99.99
71297;SHT31;59082;50.658;4.608;2022-12-29T17:43:33;5.26;99.99
71297;SHT31;59082;50.658;4.608;2022-12-29T17:45:58;5.30;99.99
71297;SHT31;59082;50.658;4.608;2022-12-29T17:48:25;5.33;99.99
71297;SHT31;59082;50.658;4.608;2022-12-29T17:50:52;5.36;99.99
71297;SHT31;59082;50.658;4.608;2022-12-29T17:53:26;5.27;99.99
71297;SHT31;59082;50.658;4.608;2022-12-29T17:55:52;5.23;99.99
71297;SHT31;59082;50.658;4.608;2022-12-29T17:58:21;5.22;99.99
71297;SHT31;59082;50.658;4.608;2022-12-29T18:00:53;5.27;99.99
71297;SHT31;59082;50.658;4.608;2022-12-29T18:05:50;5.27;99.99
71297;SHT31;59082;50.658;4.608;2022-12-29T18:08:15;5.26;99.99
71297;SHT31;59082;50.658;4.608;2022-12-29T18:10:41;5.32;99.99
71297;SHT31;59082;50.658;4.608;2022-12-29T18:13:24;5.32;99.99
71297;SHT31;59082;50.658;4.608;2022-12-29T18:15:51;5.30;99.99
71297;SHT31;59082;50.658;4.608;2022-12-29T18:18:19;5.35;99.99
71297;SHT31;59082;50.658;4.608;2022-12-29T18:20:46;5.35;99.99
71297;SHT31;59082;50.658;4.608;2022-12-29T18:25:58;5.40;99.99
71297;SHT31;59082;50.658;4.608;2022-12-29T18:28:25;5.53;99.99
71297;SHT31;59082;50.658;4.608;2022-12-29T18:30:51;5.51;99.99
71297;SHT31;59082;50.658;4.608;2022-12-29T18:33:19;5.51;99.99
71297;SHT31;59082;50.658;4.608;2022-12-29T18:38:21;5.57;99.99
71297;SHT31;59082;50.658;4.608;2022-12-29T18:40:47;5.58;99.99
71297;SHT31;59082;50.658;4.608;2022-12-29T18:43:14;5.65;99.99
71297;SHT31;59082;50.658;4.608;2022-12-29T18:45:40;5.64;99.99
71297;SHT31;59082;50.658;4.608;2022-12-29T18:48:06;5.71;99.99
71297;SHT31;59082;50.658;4.608;2022-12-29T18:50:32;5.77;99.99
71297;SHT31;59082;50.658;4.608;2022-12-29T18:52:58;5.79;99.99
71297;SHT31;59082;50.658;4.608;2022-12-29T18:55:26;5.84;99.99
71297;SHT31;59082;50.658;4.608;2022-12-29T18:57:52;5.81;99.99
71297;SHT31;59082;50.658;4.608;2022-12-29T19:00:19;5.78;99.99
71297;SHT31;59082;50.658;4.608;2022-12-29T19:02:45;5.75;99.99
71297;SHT31;59082;50.658;4.608;2022-12-29T19:05:21;5.87;99.99
71297;SHT31;59082;50.658;4.608;2022-12-29T19:07:48;5.98;99.99
71297;SHT31;59082;50.658;4.608;2022-12-29T19:10:14;5.99;99.99
71297;SHT31;59082;50.658;4.608;2022-12-29T19:12:40;5.99;99.99
71297;SHT31;59082;50.658;4.608;2022-12-29T19:15:06;5.92;99.99
71297;SHT31;59082;50.658;4.608;2022-12-29T19:17:35;5.90;99.99
71297;SHT31;59082;50.658;4.608;2022-12-29T19:20:01;5.91;99.99
71297;SHT31;59082;50.658;4.608;2022-12-29T19:22:26;5.98;99.99
71297;SHT31;59082;50.658;4.608;2022-12-29T19:24:52;5.90;99.99
71297;SHT31;59082;50.658;4.608;2022-12-29T19:27:18;5.98;99.99
71297;SHT31;59082;50.658;4.608;2022-12-29T19:29:43;6.01;99.99
71297;SHT31;59082;50.658;4.608;2022-12-29T19:32:09;5.90;99.99
71297;SHT31;59082;50.658;4.608;2022-12-29T19:34:34;5.83;99.99
71297;SHT31;59082;50.658;4.608;2022-12-29T19:37:00;6.01;99.99
71297;SHT31;59082;50.658;4.608;2022-12-29T19:39:26;6.01;99.99
71297;SHT31;59082;50.658;4.608;2022-12-29T19:41:54;6.06;99.99
71297;SHT31;59082;50.658;4.608;2022-12-29T19:44:19;6.04;99.99
71297;SHT31;59082;50.658;4.608;2022-12-29T19:46:45;6.06;99.99
71297;SHT31;59082;50.658;4.608;2022-12-29T19:49:10;6.06;99.99
71297;SHT31;59082;50.658;4.608;2022-12-29T19:51:39;5.99;99.99
71297;SHT31;59082;50.658;4.608;2022-12-29T19:54:04;6.04;99.99
71297;SHT31;59082;50.658;4.608;2022-12-29T19:56:33;5.94;99.99
71297;SHT31;59082;50.658;4.608;2022-12-29T19:59:01;5.98;99.99
71297;SHT31;59082;50.658;4.608;2022-12-29T20:01:27;5.90;99.99
71297;SHT31;59082;50.658;4.608;2022-12-29T20:03:52;5.84;99.99
71297;SHT31;59082;50.658;4.608;2022-12-29T20:06:18;5.85;99.99
71297;SHT31;59082;50.658;4.608;2022-12-29T20:08:44;5.71;99.99
71297;SHT31;59082;50.658;4.608;2022-12-29T20:11:14;5.74;99.99
71297;SHT31;59082;50.658;4.608;2022-12-29T20:13:41;5.75;99.99
71297;SHT31;59082;50.658;4.608;2022-12-29T20:16:11;5.73;99.99
71297;SHT31;59082;50.658;4.608;2022-12-29T20:18:37;5.77;99.99
71297;SHT31;59082;50.658;4.608;2022-12-29T20:21:06;5.81;99.99
71297;SHT31;59082;50.658;4.608;2022-12-29T20:23:33;5.78;99.99
71297;SHT31;59082;50.658;4.608;2022-12-29T20:26:00;5.74;99.99
71297;SHT31;59082;50.658;4.608;2022-12-29T20:28:27;5.79;99.99
71297;SHT31;59082;50.658;4.608;2022-12-29T20:30:57;5.71;99.99
71297;SHT31;59082;50.658;4.608;2022-12-29T20:33:23;5.77;99.99
71297;SHT31;59082;50.658;4.608;2022-12-29T20:35:49;5.78;99.99
71297;SHT31;59082;50.658;4.608;2022-12-29T20:38:15;5.77;99.99
71297;SHT31;59082;50.658;4.608;2022-12-29T20:40:41;5.95;99.99
71297;SHT31;59082;50.658;4.608;2022-12-29T20:43:07;5.87;99.99
71297;SHT31;59082;50.658;4.608;2022-12-29T20:45:33;5.79;99.99
71297;SHT31;59082;50.658;4.608;2022-12-29T20:47:59;5.79;99.99
71297;SHT31;59082;50.658;4.608;2022-12-29T20:50:24;5.71;99.99
71297;SHT31;59082;50.658;4.608;2022-12-29T20:52:50;5.75;99.99
71297;SHT31;59082;50.658;4.608;2022-12-29T20:55:15;5.64;99.99
71297;SHT31;59082;50.658;4.608;2022-12-29T20:57:41;5.54;99.99
71297;SHT31;59082;50.658;4.608;2022-12-29T21:00:07;5.68;99.99
71297;SHT31;59082;50.658;4.608;2022-12-29T21:02:34;5.63;99.99
71297;SHT31;59082;50.658;4.608;2022-12-29T21:05:00;5.54;99.99
71297;SHT31;59082;50.658;4.608;2022-12-29T21:07:25;5.53;99.99
71297;SHT31;59082;50.658;4.608;2022-12-29T21:09:51;5.53;99.99
71297;SHT31;59082;50.658;4.608;2022-12-29T21:12:16;5.54;99.99
71297;SHT31;59082;50.658;4.608;2022-12-29T21:14:42;5.63;99.99
71297;SHT31;59082;50.658;4.608;2022-12-29T21:17:07;5.65;99.99
71297;SHT31;59082;50.658;4.608;2022-12-29T21:19:33;5.54;99.99
71297;SHT31;59082;50.658;4.608;2022-12-29T21:21:58;5.64;99.99
71297;SHT31;59082;50.658;4.608;2022-12-29T21:24:24;5.48;99.99
71297;SHT31;59082;50.658;4.608;2022-12-29T21:26:50;5.39;99.99
71297;SHT31;59082;50.658;4.608;2022-12-29T21:29:15;5.40;99.99
71297;SHT31;59082;50.658;4.608;2022-12-29T21:31:41;5.57;99.99
71297;SHT31;59082;50.658;4.608;2022-12-29T21:34:08;5.46;99.99
71297;SHT31;59082;50.658;4.608;2022-12-29T21:36:33;5.29;99.99
71297;SHT31;59082;50.658;4.608;2022-12-29T21:38:59;5.26;99.99
71297;SHT31;59082;50.658;4.608;2022-12-29T21:41:25;5.27;99.99
71297;SHT31;59082;50.658;4.608;2022-12-29T21:43:51;5.12;99.99
71297;SHT31;59082;50.658;4.608;2022-12-29T21:46:37;5.12;99.99
71297;SHT31;59082;50.658;4.608;2022-12-29T21:49:04;5.12;99.99
71297;SHT31;59082;50.658;4.608;2022-12-29T21:51:30;5.05;99.99
71297;SHT31;59082;50.658;4.608;2022-12-29T21:54:14;5.04;99.99
71297;SHT31;59082;50.658;4.608;2022-12-29T21:56:58;5.06;99.99
71297;SHT31;59082;50.658;4.608;2022-12-29T21:59:24;5.06;99.99
71297;SHT31;59082;50.658;4.608;2022-12-29T22:02:25;4.95;99.99
71297;SHT31;59082;50.658;4.608;2022-12-29T22:05:11;4.85;99.99
71297;SHT31;59082;50.658;4.608;2022-12-29T22:07:55;4.87;99.99
71297;SHT31;59082;50.658;4.608;2022-12-29T22:10:41;4.96;99.99
71297;SHT31;59082;50.658;4.608;2022-12-29T22:13:26;4.95;99.99
71297;SHT31;59082;50.658;4.608;2022-12-29T22:15:51;4.91;99.99
71297;SHT31;59082;50.658;4.608;2022-12-29T22:18:17;4.88;99.99
71297;SHT31;59082;50.658;4.608;2022-12-29T22:20:42;4.98;99.99
71297;SHT31;59082;50.658;4.608;2022-12-29T22:23:08;4.95;99.99
71297;SHT31;59082;50.658;4.608;2022-12-29T22:25:34;4.95;99.99
71297;SHT31;59082;50.658;4.608;2022-12-29T22:27:59;4.88;99.99
71297;SHT31;59082;50.658;4.608;2022-12-29T22:30:28;4.92;99.99
71297;SHT31;59082;50.658;4.608;2022-12-29T22:32:55;4.84;99.99
71297;SHT31;59082;50.658;4.608;2022-12-29T22:35:21;4.84;99.99
71297;SHT31;59082;50.658;4.608;2022-12-29T22:37:46;4.82;99.99
